createdAt,value
2017-07-22T00:00:14.753Z,13.9
2017-07-22T00:01:16.906Z,11.3
2017-07-22T00:02:19.037Z,10.4
2017-07-22T00:03:21.144Z,12.9
2017-07-22T00:04:23.277Z,13.3
2017-07-22T00:05:25.377Z,10.5
2017-07-22T00:06:27.573Z,11.4
2017-07-22T00:07:29.726Z,12.1
2017-07-22T00:08:31.843Z,13.7
2017-07-22T00:09:33.924Z,11.4
2017-07-22T00:10:35.974Z,13.8
2017-07-22T00:11:38.029Z,10.6
2017-07-22T00:12:40.200Z,13.8
2017-07-22T00:13:42.289Z,11.5
2017-07-22T00:14:44.396Z,13.1
2017-07-22T00:15:46.568Z,9.8
2017-07-22T00:16:48.827Z,12.8
2017-07-22T00:17:51.011Z,13.3
2017-07-22T00:18:53.073Z,12.1
2017-07-22T00:19:55.249Z,12.0
2017-07-22T00:20:57.387Z,12.3
2017-07-22T00:21:59.496Z,12.2
2017-07-22T00:23:01.641Z,11.7
2017-07-22T00:24:03.776Z,11.1
2017-07-22T00:25:05.895Z,10.0
2017-07-22T00:26:07.978Z,9.7
2017-07-22T00:27:10.085Z,12.5
2017-07-22T00:28:12.057Z,10.8
2017-07-22T00:29:14.134Z,10.8
2017-07-22T00:30:16.242Z,12.3
2017-07-22T00:31:18.373Z,14.0
2017-07-22T00:32:20.309Z,19.3
2017-07-22T00:33:22.446Z,10.5
2017-07-22T00:34:24.595Z,13.8
2017-07-22T00:35:26.608Z,11.5
2017-07-22T00:36:28.626Z,13.1
2017-07-22T00:37:30.761Z,7.4
2017-07-22T00:38:32.753Z,13.4
2017-07-22T00:39:34.874Z,10.2
2017-07-22T00:40:37.073Z,8.8
2017-07-22T00:41:39.131Z,8.7
2017-07-22T00:42:41.286Z,11.1
2017-07-22T00:43:43.429Z,10.3
2017-07-22T00:44:45.551Z,9.7
2017-07-22T00:45:47.724Z,11.9
2017-07-22T00:46:49.827Z,10.7
2017-07-22T00:47:51.905Z,13.4
2017-07-22T00:48:53.998Z,15.1
2017-07-22T00:49:56.188Z,13.4
2017-07-22T00:50:58.387Z,9.0
2017-07-22T00:52:00.421Z,9.7
2017-07-22T00:53:02.591Z,11.7
2017-07-22T00:54:04.663Z,10.9
2017-07-22T00:55:06.762Z,8.3
2017-07-22T00:56:08.727Z,8.5
2017-07-22T00:57:10.854Z,12.7
2017-07-22T00:58:12.915Z,12.1
2017-07-22T00:59:15.116Z,10.0
2017-07-22T01:00:17.290Z,13.7
2017-07-22T01:01:19.425Z,12.9
2017-07-22T01:02:21.481Z,16.7
2017-07-22T01:03:23.662Z,14.3
2017-07-22T01:04:25.815Z,11.9
2017-07-22T01:05:27.871Z,10.7
2017-07-22T01:06:29.948Z,9.8
2017-07-22T01:07:32.127Z,12.8
2017-07-22T01:08:34.188Z,13.8
2017-07-22T01:09:36.357Z,11.1
2017-07-22T01:10:38.464Z,10.3
2017-07-22T01:11:40.531Z,14.0
2017-07-22T01:12:42.581Z,11.0
2017-07-22T01:13:44.728Z,11.3
2017-07-22T01:14:46.784Z,12.8
2017-07-22T01:15:48.833Z,10.4
2017-07-22T01:16:50.942Z,8.5
2017-07-22T01:17:53.041Z,7.7
2017-07-22T01:18:55.080Z,12.5
2017-07-22T01:19:57.329Z,9.9
2017-07-22T01:20:59.310Z,11.5
2017-07-22T01:22:01.438Z,9.4
2017-07-22T01:23:03.589Z,13.6
2017-07-22T01:24:05.618Z,10.2
2017-07-22T01:25:07.693Z,12.8
2017-07-22T01:26:09.791Z,9.3
2017-07-22T01:27:11.832Z,12.7
2017-07-22T01:28:13.886Z,9.0
2017-07-22T01:29:15.986Z,15.5
2017-07-22T01:30:18.034Z,10.0
2017-07-22T01:31:20.161Z,9.8
2017-07-22T01:32:22.229Z,12.7
2017-07-22T01:33:24.302Z,8.0
2017-07-22T01:34:26.373Z,16.2
2017-07-22T01:35:28.395Z,9.3
2017-07-22T01:36:30.522Z,10.6
2017-07-22T01:37:32.547Z,13.4
2017-07-22T01:38:34.634Z,8.9
2017-07-22T01:39:36.767Z,10.3
2017-07-22T01:40:38.894Z,10.1
2017-07-22T01:41:40.973Z,12.4
2017-07-22T01:42:43.148Z,11.0
2017-07-22T01:43:45.179Z,9.2
2017-07-22T01:44:47.311Z,9.9
2017-07-22T01:45:49.403Z,10.6
2017-07-22T01:46:51.490Z,10.0
2017-07-22T01:47:53.651Z,11.8
2017-07-22T01:48:55.743Z,13.9
2017-07-22T01:49:57.935Z,13.4
2017-07-22T01:51:00.015Z,9.8
2017-07-22T01:52:02.133Z,15.8
2017-07-22T01:53:04.226Z,10.2
2017-07-22T01:54:06.220Z,11.7
2017-07-22T01:55:08.311Z,12.2
2017-07-22T01:56:10.406Z,12.5
2017-07-22T01:57:12.532Z,10.8
2017-07-22T01:58:14.686Z,14.6
2017-07-22T01:59:16.922Z,10.3
2017-07-22T02:00:19.015Z,16.8
2017-07-22T02:01:21.101Z,12.4
2017-07-22T02:02:23.271Z,14.7
2017-07-22T02:03:25.377Z,14.2
2017-07-22T02:04:27.493Z,14.0
2017-07-22T02:05:29.648Z,15.9
2017-07-22T02:06:31.800Z,12.0
2017-07-22T02:07:34.897Z,10.7
2017-07-22T02:08:37.030Z,15.6
2017-07-22T02:09:39.203Z,13.9
2017-07-22T02:10:41.425Z,13.1
2017-07-22T02:11:43.546Z,13.7
2017-07-22T02:12:45.616Z,15.5
2017-07-22T02:13:47.842Z,11.2
2017-07-22T02:14:50.024Z,14.4
2017-07-22T02:15:52.131Z,15.5
2017-07-22T02:16:54.247Z,12.6
2017-07-22T02:17:56.397Z,12.9
2017-07-22T02:18:58.516Z,15.4
2017-07-22T02:20:00.735Z,16.6
2017-07-22T02:21:02.797Z,14.2
2017-07-22T02:22:04.863Z,14.6
2017-07-22T02:23:06.984Z,14.8
2017-07-22T02:24:09.070Z,16.0
2017-07-22T02:25:11.134Z,16.8
2017-07-22T02:26:13.300Z,21.6
2017-07-22T02:27:15.399Z,17.0
2017-07-22T02:28:17.477Z,17.3
2017-07-22T02:29:19.586Z,15.4
2017-07-22T02:30:21.666Z,26.3
2017-07-22T02:31:23.773Z,21.0
2017-07-22T02:32:26.016Z,15.2
2017-07-22T02:33:28.088Z,11.8
2017-07-22T02:34:30.299Z,12.4
2017-07-22T02:35:32.416Z,17.2
2017-07-22T02:36:34.485Z,12.5
2017-07-22T02:37:36.624Z,15.4
2017-07-22T02:38:38.925Z,11.4
2017-07-22T02:39:41.050Z,12.9
2017-07-22T02:40:43.265Z,14.6
2017-07-22T02:41:45.418Z,14.7
2017-07-22T02:42:47.583Z,12.4
2017-07-22T02:43:49.722Z,11.4
2017-07-22T02:44:51.891Z,11.2
2017-07-22T02:45:54.050Z,11.4
2017-07-22T02:46:56.239Z,10.6
2017-07-22T02:47:58.397Z,11.2
2017-07-22T02:49:00.461Z,10.2
2017-07-22T02:50:02.551Z,13.8
2017-07-22T02:51:04.739Z,13.4
2017-07-22T02:52:06.910Z,11.3
2017-07-22T02:53:09.031Z,8.8
2017-07-22T02:54:11.176Z,11.9
2017-07-22T02:55:13.307Z,15.5
2017-07-22T02:56:15.322Z,10.8
2017-07-22T02:57:17.407Z,13.2
2017-07-22T02:58:19.633Z,8.6
2017-07-22T02:59:21.584Z,10.6
2017-07-22T03:00:23.649Z,12.0
2017-07-22T03:01:25.787Z,9.9
2017-07-22T03:02:27.896Z,14.1
2017-07-22T03:03:30.057Z,14.2
2017-07-22T03:04:32.186Z,9.3
2017-07-22T03:05:34.251Z,12.5
2017-07-22T03:06:36.423Z,11.5
2017-07-22T03:07:38.609Z,13.2
2017-07-22T03:08:40.748Z,8.2
2017-07-22T03:09:42.964Z,10.8
2017-07-22T03:10:45.109Z,8.1
2017-07-22T03:11:47.133Z,9.0
2017-07-22T03:12:49.290Z,8.4
2017-07-22T03:13:51.435Z,11.6
2017-07-22T03:14:53.546Z,11.6
2017-07-22T03:15:55.695Z,9.0
2017-07-22T03:16:57.817Z,8.2
2017-07-22T03:18:00.029Z,13.0
2017-07-22T03:19:02.261Z,10.5
2017-07-22T03:20:04.400Z,12.7
2017-07-22T03:21:06.488Z,14.4
2017-07-22T03:22:08.584Z,14.2
2017-07-22T03:23:10.772Z,11.2
2017-07-22T03:24:12.930Z,15.2
2017-07-22T03:25:15.081Z,12.5
2017-07-22T03:26:17.183Z,13.0
2017-07-22T03:27:19.298Z,15.9
2017-07-22T03:28:21.445Z,14.7
2017-07-22T03:29:23.617Z,10.6
2017-07-22T03:30:25.828Z,9.3
2017-07-22T03:31:27.993Z,12.2
2017-07-22T03:32:30.157Z,10.2
2017-07-22T03:33:32.340Z,13.4
2017-07-22T03:34:34.474Z,10.8
2017-07-22T03:35:36.653Z,9.2
2017-07-22T03:36:38.681Z,12.4
2017-07-22T03:37:40.818Z,11.7
2017-07-22T03:38:42.974Z,12.4
2017-07-22T03:39:45.213Z,11.3
2017-07-22T03:40:47.294Z,11.4
2017-07-22T03:41:49.460Z,11.3
2017-07-22T03:42:51.583Z,17.7
2017-07-22T03:43:53.642Z,12.8
2017-07-22T03:44:55.804Z,10.1
2017-07-22T03:45:57.849Z,10.2
2017-07-22T03:47:00.003Z,14.2
2017-07-22T03:48:02.190Z,15.4
2017-07-22T03:49:04.330Z,21.9
2017-07-22T03:50:06.399Z,14.2
2017-07-22T03:51:08.442Z,17.8
2017-07-22T03:52:10.603Z,16.4
2017-07-22T03:53:12.688Z,10.9
2017-07-22T03:54:14.795Z,15.7
2017-07-22T03:55:16.928Z,12.0
2017-07-22T03:56:18.965Z,20.1
2017-07-22T03:57:21.089Z,15.1
2017-07-22T03:58:23.191Z,15.6
2017-07-22T03:59:25.281Z,12.3
2017-07-22T04:00:27.423Z,15.6
2017-07-22T04:01:29.528Z,11.5
2017-07-22T04:02:31.561Z,16.7
2017-07-22T04:03:33.653Z,13.0
2017-07-22T04:04:35.748Z,13.0
2017-07-22T04:05:37.822Z,18.1
2017-07-22T04:06:39.846Z,14.1
2017-07-22T04:07:42.000Z,13.0
2017-07-22T04:08:44.104Z,12.3
2017-07-22T04:09:46.226Z,13.7
2017-07-22T04:10:48.298Z,13.3
2017-07-22T04:11:50.401Z,15.6
2017-07-22T04:12:52.503Z,13.5
2017-07-22T04:13:54.652Z,11.6
2017-07-22T04:14:56.689Z,14.7
2017-07-22T04:15:58.761Z,12.9
2017-07-22T04:17:00.911Z,13.0
2017-07-22T04:18:02.998Z,11.1
2017-07-22T04:19:04.973Z,14.6
2017-07-22T04:20:07.054Z,19.4
2017-07-22T04:21:09.183Z,14.3
2017-07-22T04:22:11.384Z,11.6
2017-07-22T04:23:13.492Z,14.6
2017-07-22T04:24:15.562Z,17.0
2017-07-22T04:25:17.698Z,13.3
2017-07-22T04:26:19.732Z,13.1
2017-07-22T04:27:21.819Z,14.3
2017-07-22T04:28:24.001Z,16.1
2017-07-22T04:29:26.051Z,10.9
2017-07-22T04:30:28.273Z,12.3
2017-07-22T04:31:30.451Z,13.8
2017-07-22T04:32:32.546Z,12.1
2017-07-22T04:33:34.632Z,12.0
2017-07-22T04:34:36.719Z,11.9
2017-07-22T04:35:38.980Z,13.6
2017-07-22T04:36:41.175Z,11.4
2017-07-22T04:37:43.375Z,15.0
2017-07-22T04:38:45.533Z,12.7
2017-07-22T04:39:47.752Z,9.6
2017-07-22T04:40:49.849Z,12.1
2017-07-22T04:41:51.913Z,12.6
2017-07-22T04:42:53.996Z,12.4
2017-07-22T04:43:56.208Z,10.4
2017-07-22T04:44:58.347Z,17.4
2017-07-22T04:46:00.550Z,14.7
2017-07-22T04:47:02.704Z,16.3
2017-07-22T04:48:04.823Z,13.3
2017-07-22T04:49:06.971Z,10.2
2017-07-22T04:50:09.086Z,18.7
2017-07-22T04:51:11.304Z,13.2
2017-07-22T04:52:13.479Z,19.6
2017-07-22T04:53:15.636Z,18.7
2017-07-22T04:54:17.783Z,11.3
2017-07-22T04:55:19.961Z,16.1
2017-07-22T04:56:22.143Z,17.4
2017-07-22T04:57:24.312Z,12.3
2017-07-22T04:58:26.512Z,17.9
2017-07-22T04:59:28.657Z,13.1
2017-07-22T05:00:30.836Z,18.1
2017-07-22T05:01:32.991Z,19.4
2017-07-22T05:02:35.169Z,18.3
2017-07-22T05:03:37.268Z,19.6
2017-07-22T05:04:39.426Z,15.8
2017-07-22T05:05:41.571Z,14.0
2017-07-22T05:06:43.809Z,17.2
2017-07-22T05:07:46.197Z,9.4
2017-07-22T05:08:48.415Z,15.3
2017-07-22T05:09:50.654Z,14.5
2017-07-22T05:10:52.879Z,12.8
2017-07-22T05:11:55.984Z,15.9
2017-07-22T05:12:58.245Z,13.1
2017-07-22T05:14:00.423Z,24.1
2017-07-22T05:15:02.616Z,14.2
2017-07-22T05:16:04.808Z,11.5
2017-07-22T05:17:07.506Z,12.7
2017-07-22T05:18:09.830Z,10.7
2017-07-22T05:19:13.979Z,11.7
2017-07-22T05:20:16.316Z,13.6
2017-07-22T05:21:18.482Z,16.6
2017-07-22T05:22:20.678Z,14.7
2017-07-22T05:23:22.836Z,11.0
2017-07-22T05:24:26.004Z,11.0
2017-07-22T05:25:29.456Z,12.5
2017-07-22T05:26:31.635Z,12.0
2017-07-22T05:27:33.900Z,19.0
2017-07-22T05:28:36.054Z,9.8
2017-07-22T05:29:38.275Z,13.7
2017-07-22T05:30:40.505Z,14.9
2017-07-22T05:31:42.684Z,11.3
2017-07-22T05:32:44.789Z,16.4
2017-07-22T05:33:47.076Z,14.3
2017-07-22T05:34:49.347Z,13.7
2017-07-22T05:35:51.629Z,12.6
2017-07-22T05:36:53.719Z,10.7
2017-07-22T05:37:55.914Z,13.2
2017-07-22T05:38:58.137Z,11.6
2017-07-22T05:40:00.308Z,12.7
2017-07-22T05:41:02.452Z,12.6
2017-07-22T05:42:04.677Z,10.6
2017-07-22T05:43:06.845Z,11.8
2017-07-22T05:44:09.111Z,10.7
2017-07-22T05:45:11.298Z,12.2
2017-07-22T05:46:13.510Z,8.7
2017-07-22T05:47:15.703Z,10.0
2017-07-22T05:48:17.943Z,9.3
2017-07-22T05:49:20.197Z,10.1
2017-07-22T05:50:22.447Z,11.4
2017-07-22T05:51:24.777Z,11.2
2017-07-22T05:52:26.971Z,9.8
2017-07-22T05:53:29.285Z,12.3
2017-07-22T05:54:31.354Z,12.7
2017-07-22T05:55:33.606Z,10.4
2017-07-22T05:56:35.846Z,11.5
2017-07-22T05:57:38.115Z,9.0
2017-07-22T05:58:40.229Z,12.7
2017-07-22T05:59:42.441Z,10.9
2017-07-22T06:00:44.548Z,9.1
2017-07-22T06:01:46.796Z,13.1
2017-07-22T06:02:49.041Z,16.1
2017-07-22T06:03:51.242Z,10.5
2017-07-22T06:04:53.504Z,9.4
2017-07-22T06:05:55.706Z,12.3
2017-07-22T06:06:57.925Z,11.1
2017-07-22T06:08:00.188Z,10.5
2017-07-22T06:09:02.468Z,9.1
2017-07-22T06:10:04.747Z,19.0
2017-07-22T06:11:07.084Z,13.8
2017-07-22T06:12:09.219Z,15.6
2017-07-22T06:13:11.383Z,20.6
2017-07-22T06:14:13.556Z,25.0
2017-07-22T06:15:15.771Z,18.6
2017-07-22T06:16:18.021Z,17.8
2017-07-22T06:17:20.218Z,21.6
2017-07-22T06:18:22.447Z,15.3
2017-07-22T06:19:24.699Z,14.5
2017-07-22T06:20:26.941Z,12.5
2017-07-22T06:21:29.120Z,12.6
2017-07-22T06:22:31.297Z,15.1
2017-07-22T06:23:33.508Z,13.8
2017-07-22T06:24:35.756Z,14.1
2017-07-22T06:25:38.067Z,13.6
2017-07-22T06:26:40.395Z,14.0
2017-07-22T06:27:42.514Z,16.5
2017-07-22T06:28:44.766Z,13.4
2017-07-22T06:29:46.945Z,12.0
2017-07-22T06:30:49.112Z,16.0
2017-07-22T06:31:51.479Z,12.2
2017-07-22T06:32:53.687Z,11.0
2017-07-22T06:33:56.038Z,10.7
2017-07-22T06:34:58.200Z,13.0
2017-07-22T06:36:00.357Z,10.8
2017-07-22T06:37:02.582Z,10.5
2017-07-22T06:38:04.834Z,11.3
2017-07-22T06:39:07.084Z,14.4
2017-07-22T06:40:09.285Z,12.6
2017-07-22T06:41:11.594Z,11.5
2017-07-22T06:42:13.867Z,13.5
2017-07-22T06:43:16.082Z,14.7
2017-07-22T06:44:18.378Z,11.9
2017-07-22T06:45:20.762Z,13.4
2017-07-22T06:46:23.007Z,8.4
2017-07-22T06:47:25.190Z,9.3
2017-07-22T06:48:27.424Z,10.1
2017-07-22T06:49:29.596Z,8.6
2017-07-22T06:50:31.720Z,9.0
2017-07-22T06:51:33.949Z,10.4
2017-07-22T06:52:36.088Z,11.6
2017-07-22T06:53:38.289Z,7.7
2017-07-22T06:54:40.642Z,9.9
2017-07-22T06:55:42.805Z,9.2
2017-07-22T06:56:44.953Z,16.7
2017-07-22T06:57:46.978Z,15.5
2017-07-22T06:58:49.094Z,10.6
2017-07-22T06:59:51.272Z,13.4
2017-07-22T07:00:53.432Z,9.5
2017-07-22T07:01:55.533Z,10.0
2017-07-22T07:02:57.696Z,7.7
2017-07-22T07:03:59.781Z,8.8
2017-07-22T07:05:01.922Z,10.6
2017-07-22T07:06:04.183Z,12.0
2017-07-22T07:07:06.341Z,10.2
2017-07-22T07:08:08.512Z,10.9
2017-07-22T07:09:10.724Z,9.2
2017-07-22T07:10:12.829Z,10.4
2017-07-22T07:11:15.048Z,8.9
2017-07-22T07:12:17.251Z,7.4
2017-07-22T07:13:19.349Z,9.5
2017-07-22T07:14:21.529Z,9.5
2017-07-22T07:15:23.695Z,12.3
2017-07-22T07:16:25.925Z,9.4
2017-07-22T07:17:28.033Z,9.9
2017-07-22T07:18:30.218Z,8.5
2017-07-22T07:19:32.341Z,11.0
2017-07-22T07:20:34.504Z,9.7
2017-07-22T07:21:36.732Z,8.9
2017-07-22T07:22:39.019Z,10.0
2017-07-22T07:23:41.170Z,15.4
2017-07-22T07:24:43.413Z,9.7
2017-07-22T07:25:45.537Z,10.3
2017-07-22T07:26:47.784Z,11.6
2017-07-22T07:27:49.932Z,11.7
2017-07-22T07:28:52.154Z,9.8
2017-07-22T07:29:54.349Z,10.8
2017-07-22T07:30:56.612Z,9.4
2017-07-22T07:31:58.849Z,7.9
2017-07-22T07:33:01.121Z,9.2
2017-07-22T07:34:03.509Z,7.9
2017-07-22T07:35:05.687Z,8.7
2017-07-22T07:36:07.975Z,8.1
2017-07-22T07:37:10.327Z,9.8
2017-07-22T07:38:12.548Z,11.5
2017-07-22T07:39:14.901Z,7.3
2017-07-22T07:40:17.102Z,9.0
2017-07-22T07:41:19.495Z,6.2
2017-07-22T07:42:21.811Z,7.3
2017-07-22T07:43:24.020Z,7.2
2017-07-22T07:44:26.747Z,7.7
2017-07-22T07:45:29.183Z,7.5
2017-07-22T07:46:31.411Z,6.7
2017-07-22T07:47:33.587Z,8.6
2017-07-22T07:48:35.782Z,12.3
2017-07-22T07:49:38.025Z,7.4
2017-07-22T07:50:40.254Z,6.4
2017-07-22T07:51:42.423Z,8.1
2017-07-22T07:52:44.668Z,7.6
2017-07-22T07:53:47.087Z,5.7
2017-07-22T07:54:49.307Z,8.4
2017-07-22T07:55:51.656Z,8.0
2017-07-22T07:56:53.878Z,9.4
2017-07-22T07:57:56.181Z,6.5
2017-07-22T07:58:58.430Z,8.1
2017-07-22T08:00:00.665Z,6.6
2017-07-22T08:01:02.973Z,11.2
2017-07-22T08:02:05.170Z,13.9
2017-07-22T08:03:07.460Z,6.8
2017-07-22T08:04:09.674Z,9.7
2017-07-22T08:05:11.947Z,8.6
2017-07-22T08:06:14.195Z,9.2
2017-07-22T08:07:16.488Z,7.2
2017-07-22T08:08:18.765Z,7.9
2017-07-22T08:09:21.063Z,10.3
2017-07-22T08:10:23.317Z,9.4
2017-07-22T08:11:25.588Z,10.0
2017-07-22T08:12:27.910Z,9.9
2017-07-22T08:13:30.137Z,10.7
2017-07-22T08:14:32.366Z,8.5
2017-07-22T08:15:34.608Z,6.7
2017-07-22T08:16:36.959Z,13.5
2017-07-22T08:17:39.298Z,8.0
2017-07-22T08:18:41.579Z,7.8
2017-07-22T08:19:43.940Z,7.8
2017-07-22T08:20:46.269Z,11.4
2017-07-22T08:21:48.595Z,6.6
2017-07-22T08:22:51.080Z,8.0
2017-07-22T08:23:53.379Z,8.8
2017-07-22T08:24:55.757Z,11.3
2017-07-22T08:25:58.128Z,5.7
2017-07-22T08:27:00.483Z,5.1
2017-07-22T08:28:02.849Z,6.6
2017-07-22T08:29:05.149Z,6.0
2017-07-22T08:30:07.314Z,7.3
2017-07-22T08:31:09.671Z,5.7
2017-07-22T08:32:12.048Z,5.1
2017-07-22T08:33:14.293Z,6.2
2017-07-22T08:34:16.529Z,6.5
2017-07-22T08:35:18.745Z,4.4
2017-07-22T08:36:21.172Z,4.6
2017-07-22T08:37:23.423Z,4.8
2017-07-22T08:38:25.750Z,5.9
2017-07-22T08:39:28.049Z,3.7
2017-07-22T08:40:30.508Z,4.3
2017-07-22T08:41:32.743Z,3.5
2017-07-22T08:42:35.080Z,3.3
2017-07-22T08:43:37.394Z,5.4
2017-07-22T08:44:39.755Z,3.8
2017-07-22T08:45:42.097Z,5.3
2017-07-22T08:46:44.430Z,3.5
2017-07-22T08:47:46.776Z,4.0
2017-07-22T08:48:49.179Z,2.6
2017-07-22T08:49:51.394Z,2.7
2017-07-22T08:50:53.749Z,4.4
2017-07-22T08:51:56.060Z,2.2
2017-07-22T08:52:58.330Z,3.9
2017-07-22T08:54:00.713Z,2.3
2017-07-22T08:55:03.102Z,2.3
2017-07-22T08:56:05.294Z,3.0
2017-07-22T08:57:07.701Z,3.2
2017-07-22T08:58:10.000Z,3.0
2017-07-22T08:59:12.319Z,7.6
2017-07-22T09:00:14.801Z,3.4
2017-07-22T09:01:16.753Z,2.1
2017-07-22T09:02:19.063Z,6.0
2017-07-22T09:03:21.437Z,3.6
2017-07-22T09:04:23.852Z,2.9
2017-07-22T09:05:26.166Z,2.7
2017-07-22T09:06:28.512Z,3.8
2017-07-22T09:07:30.818Z,4.4
2017-07-22T09:08:33.183Z,2.6
2017-07-22T09:09:35.362Z,3.1
2017-07-22T09:10:37.717Z,5.1
2017-07-22T09:11:40.085Z,5.0
2017-07-22T09:12:42.580Z,3.5
2017-07-22T09:13:45.055Z,5.7
2017-07-22T09:14:47.309Z,4.3
2017-07-22T09:15:49.574Z,3.6
2017-07-22T09:16:51.893Z,4.7
2017-07-22T09:17:54.358Z,3.7
2017-07-22T09:18:56.671Z,3.2
2017-07-22T09:19:59.046Z,6.2
2017-07-22T09:21:01.361Z,4.9
2017-07-22T09:22:03.736Z,3.8
2017-07-22T09:23:05.990Z,6.3
2017-07-22T09:24:08.344Z,3.7
2017-07-22T09:25:10.745Z,4.6
2017-07-22T09:26:13.027Z,7.9
2017-07-22T09:27:15.423Z,3.5
2017-07-22T09:28:17.684Z,4.1
2017-07-22T09:29:20.169Z,4.6
2017-07-22T09:30:22.592Z,4.5
2017-07-22T09:31:24.778Z,3.2
2017-07-22T09:32:27.030Z,3.8
2017-07-22T09:33:29.418Z,2.7
2017-07-22T09:34:31.759Z,2.8
2017-07-22T09:35:34.113Z,3.2
2017-07-22T09:36:36.427Z,3.8
2017-07-22T09:37:38.728Z,3.8
2017-07-22T09:38:41.135Z,4.0
2017-07-22T09:39:43.432Z,2.8
2017-07-22T09:40:45.710Z,5.3
2017-07-22T09:41:48.018Z,5.9
2017-07-22T09:42:50.243Z,3.6
2017-07-22T09:43:52.520Z,4.1
2017-07-22T09:44:54.834Z,3.3
2017-07-22T09:45:57.158Z,3.6
2017-07-22T09:46:59.536Z,2.8
2017-07-22T09:48:01.867Z,2.9
2017-07-22T09:49:04.227Z,2.9
2017-07-22T09:50:06.458Z,3.9
2017-07-22T09:51:08.803Z,2.4
2017-07-22T09:52:11.076Z,3.1
2017-07-22T09:53:13.285Z,2.6
2017-07-22T09:54:15.617Z,3.9
2017-07-22T09:55:17.897Z,4.2
2017-07-22T09:56:20.270Z,7.8
2017-07-22T09:57:22.602Z,4.0
2017-07-22T09:58:24.917Z,3.0
2017-07-22T09:59:27.272Z,10.1
2017-07-22T10:00:29.535Z,7.7
2017-07-22T10:01:31.820Z,5.4
2017-07-22T10:02:34.214Z,4.8
2017-07-22T10:03:36.555Z,2.6
2017-07-22T10:04:38.789Z,3.8
2017-07-22T10:05:41.209Z,4.1
2017-07-22T10:06:43.511Z,7.4
2017-07-22T10:07:45.896Z,4.0
2017-07-22T10:08:48.199Z,2.5
2017-07-22T10:09:50.636Z,3.1
2017-07-22T10:10:52.940Z,2.7
2017-07-22T10:11:55.311Z,3.0
2017-07-22T10:12:57.550Z,3.2
2017-07-22T10:13:59.883Z,2.9
2017-07-22T10:15:02.288Z,3.9
2017-07-22T10:16:04.647Z,6.0
2017-07-22T10:17:06.978Z,3.0
2017-07-22T10:18:09.344Z,10.6
2017-07-22T10:19:11.723Z,2.7
2017-07-22T10:20:13.984Z,3.9
2017-07-22T10:21:16.433Z,2.6
2017-07-22T10:22:18.554Z,5.2
2017-07-22T10:23:20.865Z,4.3
2017-07-22T10:24:23.226Z,3.1
2017-07-22T10:25:25.543Z,2.4
2017-07-22T10:26:27.826Z,3.7
2017-07-22T10:27:30.138Z,3.4
2017-07-22T10:28:32.497Z,2.4
2017-07-22T10:29:34.739Z,3.1
2017-07-22T10:30:37.068Z,3.9
2017-07-22T10:31:39.299Z,2.4
2017-07-22T10:32:41.560Z,4.6
2017-07-22T10:33:43.932Z,2.6
2017-07-22T10:34:46.231Z,2.6
2017-07-22T10:35:48.554Z,2.6
2017-07-22T10:36:50.940Z,2.6
2017-07-22T10:37:53.210Z,3.1
2017-07-22T10:38:55.474Z,6.9
2017-07-22T10:39:57.823Z,3.0
2017-07-22T10:41:00.188Z,3.5
2017-07-22T10:42:02.400Z,6.8
2017-07-22T10:43:04.686Z,2.6
2017-07-22T10:44:07.051Z,2.5
2017-07-22T10:45:09.196Z,2.5
2017-07-22T10:46:11.535Z,2.2
2017-07-22T10:47:13.888Z,2.4
2017-07-22T10:48:16.247Z,2.5
2017-07-22T10:49:18.686Z,3.1
2017-07-22T10:50:21.026Z,2.8
2017-07-22T10:51:23.299Z,2.5
2017-07-22T10:52:25.826Z,5.9
2017-07-22T10:53:28.041Z,3.5
2017-07-22T10:54:30.410Z,5.7
2017-07-22T10:55:32.744Z,3.2
2017-07-22T10:56:35.013Z,7.0
2017-07-22T10:57:37.309Z,3.1
2017-07-22T10:58:39.533Z,5.2
2017-07-22T10:59:41.793Z,5.3
2017-07-22T11:00:44.133Z,3.8
2017-07-22T11:01:46.363Z,3.2
2017-07-22T11:02:48.702Z,5.3
2017-07-22T11:03:51.007Z,4.7
2017-07-22T11:04:53.304Z,3.7
2017-07-22T11:05:55.576Z,3.6
2017-07-22T11:06:57.925Z,3.2
2017-07-22T11:08:00.266Z,3.4
2017-07-22T11:09:02.509Z,5.7
2017-07-22T11:10:04.826Z,5.8
2017-07-22T11:11:07.235Z,7.5
2017-07-22T11:12:09.529Z,5.4
2017-07-22T11:13:11.834Z,5.1
2017-07-22T11:14:14.228Z,4.6
2017-07-22T11:15:16.457Z,7.5
2017-07-22T11:16:18.772Z,4.8
2017-07-22T11:17:21.091Z,4.4
2017-07-22T11:18:23.485Z,4.1
2017-07-22T11:19:25.831Z,4.7
2017-07-22T11:20:28.183Z,4.0
2017-07-22T11:21:30.517Z,4.1
2017-07-22T11:22:32.836Z,3.0
2017-07-22T11:23:35.225Z,2.9
2017-07-22T11:24:38.829Z,3.0
2017-07-22T11:25:41.121Z,3.4
2017-07-22T11:26:43.412Z,7.6
2017-07-22T11:27:45.783Z,5.8
2017-07-22T11:28:48.049Z,4.2
2017-07-22T11:29:50.397Z,3.6
2017-07-22T11:30:52.683Z,3.4
2017-07-22T11:31:55.057Z,4.9
2017-07-22T11:32:57.443Z,3.1
2017-07-22T11:33:59.731Z,4.7
2017-07-22T11:35:02.036Z,3.5
2017-07-22T11:36:04.394Z,2.9
2017-07-22T11:37:06.617Z,3.9
2017-07-22T11:38:09.004Z,3.2
2017-07-22T11:39:11.181Z,4.7
2017-07-22T11:40:13.529Z,4.5
2017-07-22T11:41:15.781Z,4.3
2017-07-22T11:42:18.100Z,2.9
2017-07-22T11:43:20.451Z,3.3
2017-07-22T11:44:22.670Z,5.0
2017-07-22T11:45:25.102Z,4.4
2017-07-22T11:46:27.342Z,5.1
2017-07-22T11:47:29.698Z,5.4
2017-07-22T11:48:31.967Z,4.1
2017-07-22T11:49:34.257Z,3.5
2017-07-22T11:50:36.594Z,2.4
2017-07-22T11:51:38.915Z,2.4
2017-07-22T11:52:41.306Z,2.5
2017-07-22T11:53:43.441Z,2.8
2017-07-22T11:54:45.751Z,2.9
2017-07-22T11:55:48.151Z,2.4
2017-07-22T11:56:50.512Z,2.4
2017-07-22T11:57:52.785Z,2.4
2017-07-22T11:58:55.122Z,3.9
2017-07-22T11:59:57.458Z,2.6
2017-07-22T12:00:59.942Z,3.7
2017-07-22T12:02:02.312Z,3.0
2017-07-22T12:03:04.724Z,2.7
2017-07-22T12:04:07.068Z,2.8
2017-07-22T12:05:09.378Z,2.5
2017-07-22T12:06:11.817Z,3.2
2017-07-22T12:07:14.205Z,2.8
2017-07-22T12:08:16.855Z,3.9
2017-07-22T12:09:19.276Z,2.6
2017-07-22T12:10:21.415Z,3.3
2017-07-22T12:11:23.718Z,3.1
2017-07-22T12:12:26.019Z,2.4
2017-07-22T12:13:28.548Z,3.8
2017-07-22T12:14:30.861Z,3.4
2017-07-22T12:15:33.248Z,5.4
2017-07-22T12:16:35.691Z,2.7
2017-07-22T12:17:38.020Z,3.5
2017-07-22T12:18:40.280Z,4.5
2017-07-22T12:19:42.510Z,2.3
2017-07-22T12:20:44.668Z,3.0
2017-07-22T12:21:46.939Z,2.3
2017-07-22T12:22:49.256Z,3.0
2017-07-22T12:23:51.500Z,2.3
2017-07-22T12:24:54.000Z,2.4
2017-07-22T12:25:56.123Z,3.0
2017-07-22T12:26:58.525Z,5.6
2017-07-22T12:28:00.833Z,3.2
2017-07-22T12:29:03.062Z,2.3
2017-07-22T12:30:05.286Z,3.6
2017-07-22T12:31:07.651Z,2.6
2017-07-22T12:32:09.998Z,3.8
2017-07-22T12:33:12.353Z,2.9
2017-07-22T12:34:18.424Z,5.5
2017-07-22T12:35:22.042Z,4.2
2017-07-22T13:11:10.775Z,3.9
2017-07-22T13:12:12.397Z,5.0
2017-07-22T13:13:14.035Z,5.5
2017-07-22T13:14:15.662Z,11.6
2017-07-22T13:15:17.293Z,7.0
2017-07-22T13:16:18.913Z,6.4
2017-07-22T13:17:20.555Z,4.6
2017-07-22T13:18:22.176Z,6.4
2017-07-22T13:19:23.805Z,3.4
2017-07-22T13:20:25.427Z,3.5
2017-07-22T13:21:27.073Z,3.3
2017-07-22T13:22:28.928Z,4.4
2017-07-22T13:23:30.558Z,4.9
2017-07-22T13:24:32.313Z,3.6
2017-07-22T13:25:34.128Z,5.4
2017-07-22T13:26:35.746Z,2.6
2017-07-22T13:27:37.392Z,3.7
2017-07-22T13:28:39.020Z,4.9
2017-07-22T13:29:40.628Z,2.9
2017-07-22T13:30:42.286Z,4.6
2017-07-22T13:31:43.885Z,5.2
2017-07-22T13:32:45.509Z,4.4
2017-07-22T13:33:47.162Z,5.2
2017-07-22T13:34:48.776Z,3.0
2017-07-22T13:35:50.401Z,3.1
2017-07-22T13:36:52.020Z,4.6
2017-07-22T13:37:53.648Z,2.8
2017-07-22T13:38:55.285Z,3.0
2017-07-22T13:39:56.922Z,4.0
2017-07-22T13:40:58.527Z,4.1
2017-07-22T13:42:00.146Z,2.8
2017-07-22T13:43:01.787Z,3.4
2017-07-22T13:44:03.651Z,4.1
2017-07-22T13:45:05.256Z,4.6
2017-07-22T13:46:06.892Z,6.0
2017-07-22T13:47:08.728Z,6.4
2017-07-22T13:48:10.644Z,3.8
2017-07-22T13:49:12.463Z,6.8
2017-07-22T13:50:14.211Z,5.2
2017-07-22T13:51:15.838Z,6.3
2017-07-22T13:52:17.474Z,3.3
2017-07-22T13:53:19.093Z,8.6
2017-07-22T13:54:20.727Z,4.1
2017-07-22T13:55:22.365Z,4.4
2017-07-22T13:56:23.967Z,5.1
2017-07-22T13:57:25.613Z,3.6
2017-07-22T13:58:27.225Z,3.5
2017-07-22T13:59:28.859Z,9.7
2017-07-22T14:00:30.495Z,31.6
2017-07-22T14:01:32.791Z,10.9
2017-07-22T14:02:34.414Z,42.1
2017-07-22T14:03:36.213Z,16.2
2017-07-22T14:04:37.852Z,10.4
2017-07-22T14:05:39.486Z,22.1
2017-07-22T14:06:41.105Z,8.2
2017-07-22T14:07:42.736Z,691.9
2017-07-22T14:08:44.362Z,1129.9
2017-07-22T14:09:46.014Z,445.9
2017-07-22T14:10:47.629Z,21.1
2017-07-22T14:11:49.247Z,156.9
2017-07-22T14:12:50.884Z,25.4
2017-07-22T14:13:52.508Z,8.1
2017-07-22T14:14:54.153Z,7.3
2017-07-22T14:15:55.770Z,3.6
2017-07-22T14:16:57.413Z,3.8
2017-07-22T14:17:59.028Z,3.6
2017-07-22T14:19:00.659Z,5.0
2017-07-22T14:20:02.272Z,5.3
2017-07-22T14:21:03.899Z,3.1
2017-07-22T14:22:05.753Z,3.3
2017-07-22T14:23:07.376Z,5.6
2017-07-22T14:24:09.012Z,5.3
2017-07-22T14:25:10.632Z,5.3
2017-07-22T14:26:12.271Z,4.4
2017-07-22T14:27:13.879Z,3.8
2017-07-22T14:28:15.512Z,3.6
2017-07-22T14:29:17.148Z,5.1
2017-07-22T14:30:18.762Z,4.8
2017-07-22T14:31:20.394Z,2.5
2017-07-22T14:32:22.015Z,4.3
2017-07-22T14:33:23.640Z,3.4
2017-07-22T14:34:25.263Z,3.2
2017-07-22T14:35:26.901Z,2.5
2017-07-22T14:36:28.517Z,2.8